createdAt,value
2022-10-22T00:00:46.202Z,5.91
2022-10-22T00:03:14.225Z,6.05
2022-10-22T00:05:41.656Z,6.17
2022-10-22T00:08:09.088Z,6.05
2022-10-22T00:10:38.693Z,5.99
2022-10-22T00:13:05.992Z,6.05
2022-10-22T00:15:33.466Z,6.10
2022-10-22T00:18:01.187Z,5.87
2022-10-22T00:20:28.766Z,5.65
2022-10-22T00:22:56.279Z,5.77
2022-10-22T00:25:23.989Z,5.89
2022-10-22T00:27:51.584Z,5.95
2022-10-22T00:30:19.384Z,5.80
2022-10-22T00:32:47.164Z,5.78
2022-10-22T00:35:14.832Z,5.59
2022-10-22T00:37:42.246Z,5.61
2022-10-22T00:40:10.900Z,5.52
2022-10-22T00:42:38.966Z,5.58
2022-10-22T00:45:16.893Z,5.65
2022-10-22T00:47:54.595Z,5.67
2022-10-22T00:50:28.674Z,5.60
2022-10-22T00:52:58.091Z,5.51
2022-10-22T00:55:28.199Z,5.44
2022-10-22T00:57:57.633Z,5.10
2022-10-22T01:00:25.953Z,5.18
2022-10-22T01:02:55.855Z,5.23
2022-10-22T01:05:26.387Z,5.23
2022-10-22T01:07:54.583Z,5.59
2022-10-22T01:10:34.256Z,5.43
2022-10-22T01:13:17.691Z,4.96
2022-10-22T01:16:05.404Z,4.79
2022-10-22T01:18:39.295Z,5.14
2022-10-22T01:21:28.446Z,5.28
2022-10-22T01:24:12.071Z,5.37
2022-10-22T01:26:42.189Z,5.14
2022-10-22T01:29:26.624Z,5.25
2022-10-22T01:32:01.300Z,5.26
2022-10-22T01:34:30.993Z,5.26
2022-10-22T01:36:59.750Z,5.31
2022-10-22T01:39:30.487Z,5.28
2022-10-22T01:41:58.395Z,5.18
2022-10-22T01:44:31.917Z,4.94
2022-10-22T01:47:21.479Z,5.12
2022-10-22T01:49:48.726Z,5.02
2022-10-22T01:52:25.445Z,4.79
2022-10-22T01:55:03.594Z,4.58
2022-10-22T01:57:37.029Z,4.52
2022-10-22T02:00:10.147Z,4.55
2022-10-22T02:02:40.969Z,4.47
2022-10-22T02:05:16.952Z,4.60
2022-10-22T02:07:55.669Z,4.27
2022-10-22T02:10:25.015Z,4.30
2022-10-22T02:12:56.165Z,4.31
2022-10-22T02:15:26.242Z,4.24
2022-10-22T02:17:55.744Z,4.23
2022-10-22T02:20:27.850Z,4.13
2022-10-22T02:22:57.088Z,4.19
2022-10-22T02:25:28.620Z,4.20
2022-10-22T02:28:24.100Z,4.03
2022-10-22T02:31:01.012Z,4.38
2022-10-22T02:33:33.344Z,4.44
2022-10-22T02:36:02.689Z,4.38
2022-10-22T02:38:32.229Z,4.11
2022-10-22T02:40:59.960Z,4.23
2022-10-22T02:43:29.477Z,4.55
2022-10-22T02:45:57.301Z,4.28
2022-10-22T02:48:24.719Z,4.35
2022-10-22T02:50:52.210Z,3.94
2022-10-22T02:53:20.036Z,4.01
2022-10-22T02:55:47.333Z,4.35
2022-10-22T02:58:14.812Z,4.64
2022-10-22T03:00:42.860Z,4.63
2022-10-22T03:03:11.541Z,4.46
2022-10-22T03:05:38.914Z,4.19
2022-10-22T03:08:06.732Z,4.25
2022-10-22T03:10:34.202Z,4.25
2022-10-22T03:13:02.217Z,4.41
2022-10-22T03:15:29.925Z,4.32
2022-10-22T03:17:57.329Z,4.16
2022-10-22T03:20:24.724Z,3.87
2022-10-22T03:22:52.873Z,3.55
2022-10-22T03:25:24.404Z,3.70
2022-10-22T03:27:55.845Z,3.84
2022-10-22T03:30:23.320Z,3.80
2022-10-22T03:32:50.715Z,3.82
2022-10-22T03:35:18.493Z,3.90
2022-10-22T03:37:45.913Z,3.36
2022-10-22T03:40:14.059Z,3.71
2022-10-22T03:42:42.875Z,3.90
2022-10-22T03:45:10.895Z,3.95
2022-10-22T03:47:38.705Z,3.93
2022-10-22T03:50:07.265Z,3.91
2022-10-22T03:52:39.825Z,3.97
2022-10-22T03:55:09.006Z,4.15
2022-10-22T03:57:36.521Z,3.90
2022-10-22T04:00:06.335Z,3.85
2022-10-22T04:02:34.801Z,3.53
2022-10-22T04:05:02.786Z,3.58
2022-10-22T04:07:30.464Z,3.94
2022-10-22T04:09:57.833Z,3.64
2022-10-22T04:12:25.676Z,3.69
2022-10-22T04:14:53.163Z,3.70
2022-10-22T04:17:20.600Z,4.00
2022-10-22T04:19:48.417Z,4.15
2022-10-22T04:22:15.853Z,3.88
2022-10-22T04:24:43.276Z,3.84
2022-10-22T04:27:11.090Z,3.81
2022-10-22T04:29:38.692Z,3.92
2022-10-22T04:32:06.033Z,3.48
2022-10-22T04:34:35.573Z,3.31
2022-10-22T04:37:03.460Z,3.19
2022-10-22T04:39:31.012Z,2.98
2022-10-22T04:41:58.716Z,3.38
2022-10-22T04:44:26.064Z,3.44
2022-10-22T04:46:53.682Z,3.63
2022-10-22T04:49:21.535Z,3.64
2022-10-22T04:51:49.476Z,3.48
2022-10-22T04:54:16.907Z,3.69
2022-10-22T04:56:44.727Z,3.90
2022-10-22T04:59:13.054Z,4.21
2022-10-22T05:01:43.402Z,4.27
2022-10-22T05:04:14.129Z,4.35
2022-10-22T05:06:41.776Z,4.43
2022-10-22T05:09:14.917Z,4.31
2022-10-22T05:11:49.025Z,4.23
2022-10-22T05:14:19.901Z,4.44
2022-10-22T05:16:48.947Z,4.44
2022-10-22T05:19:24.166Z,4.42
2022-10-22T05:21:57.164Z,4.47
2022-10-22T05:24:25.774Z,4.53
2022-10-22T05:26:54.943Z,4.41
2022-10-22T05:29:23.525Z,4.36
2022-10-22T05:31:51.408Z,4.58
2022-10-22T05:34:19.259Z,4.34
2022-10-22T05:36:47.092Z,4.27
2022-10-22T05:39:14.668Z,4.55
2022-10-22T05:41:42.529Z,4.16
2022-10-22T05:44:12.763Z,4.04
2022-10-22T05:46:40.997Z,4.14
2022-10-22T05:49:11.628Z,4.16
2022-10-22T05:51:39.157Z,4.09
2022-10-22T05:54:08.735Z,4.23
2022-10-22T05:56:37.639Z,4.24
2022-10-22T05:59:05.506Z,4.44
2022-10-22T06:01:37.531Z,4.61
2022-10-22T06:04:08.276Z,4.58
2022-10-22T06:06:39.716Z,4.71
2022-10-22T06:09:18.960Z,4.75
2022-10-22T06:11:47.869Z,4.77
2022-10-22T06:14:16.098Z,5.01
2022-10-22T06:16:43.584Z,5.28
2022-10-22T06:19:13.789Z,5.54
2022-10-22T06:21:41.613Z,5.78
2022-10-22T06:24:10.564Z,5.75
2022-10-22T06:26:38.616Z,5.29
2022-10-22T06:29:06.343Z,5.80
2022-10-22T06:31:37.143Z,5.72
2022-10-22T06:34:10.650Z,5.73
2022-10-22T06:39:06.794Z,6.24
2022-10-22T06:41:34.291Z,6.47
2022-10-22T06:44:03.459Z,6.17
2022-10-22T06:46:32.037Z,6.73
2022-10-22T06:49:02.601Z,6.84
2022-10-22T06:51:30.476Z,6.83
2022-10-22T06:53:58.955Z,7.15
2022-10-22T06:56:29.115Z,7.52
2022-10-22T06:58:58.565Z,7.97
2022-10-22T07:01:30.223Z,7.80
2022-10-22T07:03:58.350Z,7.69
2022-10-22T07:06:26.947Z,8.09
2022-10-22T07:08:56.477Z,8.18
2022-10-22T07:11:30.496Z,8.11
2022-10-22T07:13:59.737Z,8.32
2022-10-22T07:16:32.027Z,8.75
2022-10-22T07:19:00.979Z,8.84
2022-10-22T07:21:29.818Z,9.15
2022-10-22T07:23:58.229Z,9.32
2022-10-22T07:26:27.269Z,9.49
2022-10-22T07:28:55.031Z,8.73
2022-10-22T07:31:22.755Z,8.67
2022-10-22T07:33:50.604Z,9.47
2022-10-22T07:36:18.450Z,9.60
2022-10-22T07:38:48.114Z,10.14
2022-10-22T07:41:17.002Z,10.38
2022-10-22T07:43:44.998Z,10.61
2022-10-22T07:46:12.553Z,10.97
2022-10-22T07:48:40.271Z,11.21
2022-10-22T07:51:08.118Z,11.50
2022-10-22T07:53:35.591Z,11.68
2022-10-22T07:56:03.237Z,11.78
2022-10-22T07:58:31.255Z,11.51
2022-10-22T08:01:05.968Z,11.83
2022-10-22T08:03:33.941Z,11.98
2022-10-22T08:06:01.532Z,12.13
2022-10-22T08:08:30.927Z,12.49
2022-10-22T08:11:01.033Z,12.57
2022-10-22T08:13:30.873Z,12.53
2022-10-22T08:16:00.876Z,12.80
2022-10-22T08:18:29.235Z,12.99
2022-10-22T08:20:57.621Z,13.25
2022-10-22T08:23:26.223Z,13.61
2022-10-22T08:25:55.141Z,13.92
2022-10-22T08:28:23.481Z,14.24
2022-10-22T08:30:51.415Z,14.38
2022-10-22T08:33:18.869Z,14.54
2022-10-22T08:35:50.272Z,14.48
2022-10-22T08:38:18.936Z,14.48
2022-10-22T08:40:57.350Z,14.77
2022-10-22T08:43:41.953Z,14.86
2022-10-22T08:46:29.600Z,15.15
2022-10-22T08:51:42.195Z,15.84
2022-10-22T08:54:21.837Z,15.64
2022-10-22T08:57:21.676Z,15.88
2022-10-22T09:00:11.636Z,16.32
2022-10-22T09:02:59.711Z,16.59
2022-10-22T09:05:37.538Z,16.31
2022-10-22T09:08:06.104Z,16.05
2022-10-22T09:10:37.080Z,16.32
2022-10-22T09:13:04.697Z,16.50
2022-10-22T09:15:32.212Z,16.60
2022-10-22T09:18:37.691Z,16.90
2022-10-22T09:21:34.259Z,17.12
2022-10-22T09:24:17.055Z,17.53
2022-10-22T09:26:44.598Z,17.34
2022-10-22T09:29:21.332Z,17.79
2022-10-22T09:31:49.036Z,18.42
2022-10-22T09:34:21.725Z,18.32
2022-10-22T09:36:58.128Z,18.27
2022-10-22T09:39:34.936Z,18.55
2022-10-22T09:42:02.543Z,18.86
2022-10-22T09:44:34.749Z,19.17
2022-10-22T09:47:43.683Z,19.22
2022-10-22T09:50:38.544Z,19.13
2022-10-22T09:53:14.581Z,19.31
2022-10-22T09:55:43.486Z,19.57
2022-10-22T09:58:14.716Z,19.86
2022-10-22T10:00:46.659Z,19.76
2022-10-22T10:03:20.496Z,20.01
2022-10-22T10:05:49.933Z,19.61
2022-10-22T10:08:18.102Z,19.97
2022-10-22T10:10:52.692Z,20.35
2022-10-22T10:13:42.320Z,20.45
2022-10-22T10:16:24.581Z,21.05
2022-10-22T10:19:08.152Z,20.70
2022-10-22T10:22:03.113Z,20.54
2022-10-22T10:25:08.602Z,21.33
2022-10-22T10:27:58.895Z,21.92
2022-10-22T10:30:26.702Z,21.94
2022-10-22T10:33:13.643Z,21.62
2022-10-22T10:36:00.520Z,21.34
2022-10-22T10:38:46.193Z,21.22
2022-10-22T10:41:19.551Z,21.09
2022-10-22T10:44:03.182Z,20.90
2022-10-22T10:46:54.002Z,20.76
2022-10-22T10:49:26.801Z,21.06
2022-10-22T10:52:21.395Z,21.08
2022-10-22T10:55:02.791Z,21.15
2022-10-22T10:57:45.315Z,21.17
2022-10-22T11:00:23.053Z,21.76
2022-10-22T11:03:18.322Z,21.87
2022-10-22T11:05:54.793Z,21.70
2022-10-22T11:08:25.502Z,21.73
2022-10-22T11:11:02.830Z,21.70
2022-10-22T11:13:48.558Z,22.12
2022-10-22T11:16:16.095Z,22.00
2022-10-22T11:19:15.476Z,22.03
2022-10-22T11:22:15.382Z,22.18
2022-10-22T11:25:13.720Z,21.77
2022-10-22T11:28:00.950Z,21.64
2022-10-22T11:30:36.608Z,21.85
2022-10-22T11:33:13.037Z,21.95
2022-10-22T11:35:45.284Z,21.86
2022-10-22T11:38:16.718Z,21.72
2022-10-22T11:41:07.210Z,21.77
2022-10-22T11:43:52.662Z,21.93
2022-10-22T11:46:20.439Z,22.24
2022-10-22T11:49:14.012Z,22.22
2022-10-22T11:51:43.996Z,22.60
2022-10-22T11:54:45.010Z,22.76
2022-10-22T11:57:15.866Z,23.17
2022-10-22T12:00:01.053Z,23.50
2022-10-22T12:02:28.746Z,23.73
2022-10-22T12:05:25.160Z,23.72
2022-10-22T12:08:01.511Z,23.95
2022-10-22T12:10:36.431Z,24.17
2022-10-22T12:13:24.441Z,24.04
2022-10-22T12:15:54.541Z,23.76
2022-10-22T12:18:31.766Z,24.18
2022-10-22T12:20:59.716Z,24.15
2022-10-22T12:23:34.519Z,24.55
2022-10-22T12:26:04.832Z,24.66
2022-10-22T12:28:40.829Z,24.56
2022-10-22T12:31:16.975Z,25.00
2022-10-22T12:33:44.578Z,25.15
2022-10-22T12:36:19.078Z,25.09
2022-10-22T12:38:47.669Z,24.95
2022-10-22T12:41:15.612Z,24.75
2022-10-22T12:43:43.069Z,24.94
2022-10-22T12:46:16.546Z,25.11
2022-10-22T12:48:46.289Z,24.95
2022-10-22T12:51:20.687Z,25.06
2022-10-22T12:53:52.131Z,24.98
2022-10-22T12:56:26.872Z,24.70
2022-10-22T12:59:02.142Z,24.37
2022-10-22T13:01:36.655Z,24.07
2022-10-22T13:04:12.802Z,24.11
2022-10-22T13:06:46.137Z,23.77
2022-10-22T13:09:25.391Z,23.84
2022-10-22T13:12:01.933Z,23.85
2022-10-22T13:14:32.696Z,23.93
2022-10-22T13:17:13.735Z,24.22
2022-10-22T13:19:45.807Z,24.30
2022-10-22T13:22:27.282Z,24.35
2022-10-22T13:27:29.288Z,24.40
2022-10-22T13:29:59.636Z,24.24
2022-10-22T13:32:34.497Z,24.04
2022-10-22T13:35:03.979Z,24.28
2022-10-22T13:37:34.382Z,24.09
2022-10-22T13:40:02.084Z,23.72
2022-10-22T13:42:29.490Z,23.74
2022-10-22T13:44:56.886Z,23.52
2022-10-22T13:47:28.039Z,23.24
2022-10-22T13:49:59.092Z,23.21
2022-10-22T13:52:37.504Z,22.80
2022-10-22T13:55:24.721Z,22.70
2022-10-22T13:58:12.281Z,22.12
2022-10-22T14:00:42.466Z,21.52
2022-10-22T14:03:22.018Z,21.42
2022-10-22T14:05:50.160Z,21.45
2022-10-22T14:08:20.997Z,21.74
2022-10-22T14:10:48.902Z,21.60
2022-10-22T14:13:18.175Z,21.70
2022-10-22T14:18:24.361Z,21.54
2022-10-22T14:21:01.281Z,21.60
2022-10-22T14:23:30.771Z,22.80
2022-10-22T14:25:59.711Z,23.97
2022-10-22T14:28:26.968Z,25.10
2022-10-22T14:30:54.613Z,25.39
2022-10-22T14:33:33.031Z,24.59
2022-10-22T14:36:01.393Z,23.70
2022-10-22T14:38:29.962Z,23.21
2022-10-22T14:40:59.570Z,22.20
2022-10-22T14:43:33.087Z,21.94
2022-10-22T14:46:00.826Z,21.57
2022-10-22T14:48:28.244Z,21.27
2022-10-22T14:50:55.999Z,20.90
2022-10-22T14:53:23.760Z,20.79
2022-10-22T14:55:52.325Z,20.46
2022-10-22T14:58:19.842Z,20.42
2022-10-22T15:00:47.602Z,20.24
2022-10-22T15:03:15.018Z,20.07
2022-10-22T15:05:45.393Z,19.89
2022-10-22T15:08:15.214Z,19.68
2022-10-22T15:10:42.956Z,19.65
2022-10-22T15:13:10.614Z,19.33
2022-10-22T15:15:41.750Z,19.11
2022-10-22T15:18:09.229Z,18.87
2022-10-22T15:20:36.655Z,18.73
2022-10-22T15:23:04.416Z,18.70
2022-10-22T15:25:32.173Z,18.68
2022-10-22T15:28:07.422Z,18.54
2022-10-22T15:30:37.299Z,18.33
2022-10-22T15:33:05.213Z,18.13
2022-10-22T15:35:32.813Z,17.88
2022-10-22T15:38:00.687Z,17.63
2022-10-22T15:40:28.174Z,17.64
2022-10-22T15:42:55.613Z,17.49
2022-10-22T15:45:25.202Z,17.28
2022-10-22T15:47:52.625Z,17.15
2022-10-22T15:50:20.048Z,17.09
2022-10-22T15:52:47.861Z,16.87
2022-10-22T15:55:15.662Z,16.88
2022-10-22T15:57:43.198Z,16.69
2022-10-22T16:00:11.906Z,16.62
2022-10-22T16:02:39.813Z,16.46
2022-10-22T16:05:09.269Z,16.43
2022-10-22T16:07:36.727Z,15.99
2022-10-22T16:10:05.292Z,15.80
2022-10-22T16:12:33.519Z,15.80
2022-10-22T16:15:00.853Z,15.91
2022-10-22T16:17:28.348Z,15.63
2022-10-22T16:19:56.398Z,15.68
2022-10-22T16:22:23.877Z,15.63
2022-10-22T16:24:51.265Z,15.56
2022-10-22T16:27:19.024Z,15.40
2022-10-22T16:29:46.473Z,15.31
2022-10-22T16:32:13.843Z,15.42
2022-10-22T16:34:42.206Z,15.31
2022-10-22T16:37:10.505Z,15.29
2022-10-22T16:39:38.462Z,15.28
2022-10-22T16:42:06.892Z,15.24
2022-10-22T16:44:34.384Z,15.12
2022-10-22T16:47:01.764Z,14.76
2022-10-22T16:49:29.467Z,14.33
2022-10-22T16:51:56.952Z,14.56
2022-10-22T16:54:24.598Z,14.47
2022-10-22T16:56:52.337Z,14.51
2022-10-22T16:59:19.693Z,14.65
2022-10-22T17:01:47.113Z,14.50
2022-10-22T17:04:17.412Z,14.61
2022-10-22T17:06:44.877Z,14.69
2022-10-22T17:09:14.818Z,14.63
2022-10-22T17:11:42.608Z,14.47
2022-10-22T17:14:12.200Z,14.28
2022-10-22T17:16:39.931Z,14.21
2022-10-22T17:19:07.407Z,14.15
2022-10-22T17:21:34.822Z,14.06
2022-10-22T17:24:02.621Z,14.02
2022-10-22T17:26:33.356Z,14.04
2022-10-22T17:29:00.964Z,14.00
2022-10-22T17:31:35.683Z,13.67
2022-10-22T17:34:05.783Z,13.71
2022-10-22T17:36:35.883Z,13.30
2022-10-22T17:39:06.877Z,13.58
2022-10-22T17:41:37.125Z,13.45
2022-10-22T17:44:07.150Z,13.42
2022-10-22T17:46:35.037Z,13.69
2022-10-22T17:49:07.179Z,13.61
2022-10-22T17:51:34.974Z,13.79
2022-10-22T17:54:04.674Z,13.49
2022-10-22T17:56:35.374Z,13.51
2022-10-22T17:59:03.158Z,13.40
2022-10-22T18:01:33.413Z,13.22
2022-10-22T18:04:08.067Z,13.38
2022-10-22T18:06:36.291Z,13.07
2022-10-22T18:09:06.384Z,13.04
2022-10-22T18:11:36.754Z,13.01
2022-10-22T18:14:05.208Z,12.87
2022-10-22T18:16:32.728Z,12.74
2022-10-22T18:19:00.213Z,12.68
2022-10-22T18:21:29.664Z,12.58
2022-10-22T18:23:57.962Z,12.51
2022-10-22T18:26:26.941Z,12.56
2022-10-22T18:28:57.056Z,12.44
2022-10-22T18:31:26.525Z,12.34
2022-10-22T18:33:55.220Z,12.39
2022-10-22T18:36:24.077Z,12.36
2022-10-22T18:38:56.513Z,12.36
2022-10-22T18:41:27.105Z,12.15
2022-10-22T18:43:56.728Z,12.13
2022-10-22T18:46:27.247Z,11.87
2022-10-22T18:48:59.054Z,11.45
2022-10-22T18:51:30.773Z,11.76
2022-10-22T18:54:05.390Z,11.73
2022-10-22T18:56:40.963Z,11.86
2022-10-22T18:59:17.295Z,11.66
2022-10-22T19:01:44.905Z,11.73
2022-10-22T19:04:13.860Z,11.83
2022-10-22T19:06:45.298Z,11.94
2022-10-22T19:09:15.541Z,12.01
2022-10-22T19:11:45.380Z,11.72
2022-10-22T19:14:14.037Z,11.56
2022-10-22T19:16:41.793Z,11.52
2022-10-22T19:19:09.311Z,11.55
2022-10-22T19:21:38.358Z,11.53
2022-10-22T19:24:06.705Z,11.62
2022-10-22T19:26:35.448Z,11.75
2022-10-22T19:29:04.226Z,11.76
2022-10-22T19:31:32.295Z,11.55
2022-10-22T19:34:01.389Z,11.62
2022-10-22T19:36:30.400Z,11.45
2022-10-22T19:38:59.480Z,11.44
2022-10-22T19:41:28.238Z,11.20
2022-10-22T19:43:57.498Z,11.28
2022-10-22T19:46:27.439Z,11.08
2022-10-22T19:48:57.374Z,11.04
2022-10-22T19:51:30.057Z,10.78
2022-10-22T19:53:59.960Z,10.75
2022-10-22T19:56:28.824Z,10.84
2022-10-22T19:58:56.766Z,10.87
2022-10-22T20:01:25.079Z,10.87
2022-10-22T20:03:53.338Z,10.95
2022-10-22T20:06:22.002Z,10.86
2022-10-22T20:08:52.379Z,10.99
2022-10-22T20:11:29.155Z,10.93
2022-10-22T20:13:57.468Z,10.71
2022-10-22T20:16:28.735Z,10.90
2022-10-22T20:19:00.989Z,11.01
2022-10-22T20:21:28.913Z,10.86
2022-10-22T20:23:57.547Z,10.62
2022-10-22T20:26:28.349Z,10.53
2022-10-22T20:28:57.964Z,10.54
2022-10-22T20:31:28.654Z,10.36
2022-10-22T20:33:59.269Z,10.27
2022-10-22T20:36:27.939Z,10.43
2022-10-22T20:39:08.717Z,10.50
2022-10-22T20:41:40.747Z,10.13
2022-10-22T20:44:13.710Z,10.36
2022-10-22T20:46:41.151Z,10.11
2022-10-22T20:49:12.141Z,9.96
2022-10-22T20:51:39.591Z,10.12
2022-10-22T20:54:08.611Z,10.20
2022-10-22T20:56:38.948Z,10.11
2022-10-22T20:59:08.696Z,10.15
2022-10-22T21:01:54.615Z,10.10
2022-10-22T21:04:22.138Z,10.18
2022-10-22T21:06:50.745Z,10.46
2022-10-22T21:09:18.240Z,9.97
2022-10-22T21:11:46.321Z,9.90
2022-10-22T21:14:17.028Z,9.95
2022-10-22T21:16:45.530Z,9.78
2022-10-22T21:19:13.035Z,9.67
2022-10-22T21:21:40.929Z,9.65
2022-10-22T21:24:08.961Z,9.70
2022-10-22T21:26:40.919Z,9.79
2022-10-22T21:29:09.893Z,9.77
2022-10-22T21:31:37.824Z,9.65
2022-10-22T21:34:05.291Z,9.57
2022-10-22T21:36:33.134Z,9.70
2022-10-22T21:39:01.134Z,9.61
2022-10-22T21:41:28.517Z,9.59
2022-10-22T21:43:56.249Z,9.43
2022-10-22T21:46:26.653Z,9.19
2022-10-22T21:48:59.319Z,9.35
2022-10-22T21:51:27.309Z,9.24
2022-10-22T21:53:56.133Z,9.43
2022-10-22T21:56:30.169Z,9.45
2022-10-22T21:58:57.897Z,9.59
2022-10-22T22:01:26.321Z,9.17
2022-10-22T22:03:54.480Z,8.96
2022-10-22T22:06:26.286Z,8.96
2022-10-22T22:08:55.762Z,9.12
2022-10-22T22:11:26.535Z,9.12
2022-10-22T22:13:55.463Z,9.18
2022-10-22T22:16:28.449Z,9.31
2022-10-22T22:18:58.695Z,9.03
2022-10-22T22:21:26.775Z,9.17
2022-10-22T22:23:54.364Z,9.02
2022-10-22T22:26:26.903Z,8.94
2022-10-22T22:28:59.502Z,8.87
2022-10-22T22:31:30.133Z,9.05
2022-10-22T22:34:00.252Z,8.74
2022-10-22T22:36:28.509Z,8.47
2022-10-22T22:38:56.767Z,8.52
2022-10-22T22:41:24.584Z,8.58
2022-10-22T22:43:51.929Z,8.28
2022-10-22T22:46:19.488Z,8.59
2022-10-22T22:48:50.733Z,8.80
2022-10-22T22:51:18.401Z,8.55
2022-10-22T22:53:46.454Z,8.92
2022-10-22T22:56:25.688Z,8.50
2022-10-22T22:58:53.446Z,8.64
2022-10-22T23:01:34.547Z,8.70
2022-10-22T23:04:13.333Z,8.49
2022-10-22T23:06:41.112Z,8.38
2022-10-22T23:09:11.684Z,8.37
2022-10-22T23:11:41.717Z,8.35
2022-10-22T23:14:13.874Z,8.38
2022-10-22T23:16:49.103Z,8.57
2022-10-22T23:19:19.860Z,8.63
2022-10-22T23:21:52.799Z,8.57
2022-10-22T23:24:23.757Z,8.59
2022-10-22T23:26:53.343Z,8.49
2022-10-22T23:29:30.929Z,8.77
2022-10-22T23:32:04.071Z,8.57
2022-10-22T23:34:32.300Z,8.02
2022-10-22T23:37:00.415Z,8.33
2022-10-22T23:39:29.635Z,8.18
2022-10-22T23:41:58.516Z,8.48
2022-10-22T23:44:26.052Z,8.54
2022-10-22T23:46:55.344Z,8.47
2022-10-22T23:49:23.112Z,8.45
2022-10-22T23:51:50.467Z,8.42
2022-10-22T23:54:18.812Z,8.53
2022-10-22T23:56:46.704Z,8.31
